sensor_id;sensor_type;location;lat;lon;timestamp;P1;durP1;ratioP1;P2;durP2;ratioP2
24381;SDS011;12502;50.678;7.172;2023-01-19T00:01:33;19.65;;;11.38;;
24381;SDS011;12502;50.678;7.172;2023-01-19T00:06:35;18.33;;;11.15;;
24381;SDS011;12502;50.678;7.172;2023-01-19T00:11:37;19.83;;;12.02;;
24381;SDS011;12502;50.678;7.172;2023-01-19T00:16:39;20.00;;;11.60;;
24381;SDS011;12502;50.678;7.172;2023-01-19T00:21:40;26.67;;;12.88;;
24381;SDS011;12502;50.678;7.172;2023-01-19T00:26:42;20.90;;;11.75;;
24381;SDS011;12502;50.678;7.172;2023-01-19T00:31:44;21.13;;;11.18;;
24381;SDS011;12502;50.678;7.172;2023-01-19T00:36:46;18.50;;;11.15;;
24381;SDS011;12502;50.678;7.172;2023-01-19T00:41:47;20.13;;;11.80;;
24381;SDS011;12502;50.678;7.172;2023-01-19T00:47:08;20.50;;;11.80;;
24381;SDS011;12502;50.678;7.172;2023-01-19T00:52:10;21.45;;;11.48;;
24381;SDS011;12502;50.678;7.172;2023-01-19T00:57:13;24.17;;;13.20;;
24381;SDS011;12502;50.678;7.172;2023-01-19T01:02:15;18.30;;;11.38;;
24381;SDS011;12502;50.678;7.172;2023-01-19T01:07:17;19.33;;;11.40;;
24381;SDS011;12502;50.678;7.172;2023-01-19T01:12:19;22.40;;;13.75;;
24381;SDS011;12502;50.678;7.172;2023-01-19T01:17:21;23.00;;;13.98;;
24381;SDS011;12502;50.678;7.172;2023-01-19T01:22:25;23.25;;;12.70;;
24381;SDS011;12502;50.678;7.172;2023-01-19T01:27:27;20.50;;;12.18;;
24381;SDS011;12502;50.678;7.172;2023-01-19T01:32:29;20.15;;;12.70;;
24381;SDS011;12502;50.678;7.172;2023-01-19T01:37:30;26.35;;;13.93;;
24381;SDS011;12502;50.678;7.172;2023-01-19T01:42:33;28.75;;;14.93;;
24381;SDS011;12502;50.678;7.172;2023-01-19T01:52:47;23.55;;;14.27;;
24381;SDS011;12502;50.678;7.172;2023-01-19T01:58:07;24.58;;;14.48;;
24381;SDS011;12502;50.678;7.172;2023-01-19T02:03:10;22.60;;;14.13;;
24381;SDS011;12502;50.678;7.172;2023-01-19T02:13:52;20.25;;;12.80;;
24381;SDS011;12502;50.678;7.172;2023-01-19T02:18:54;23.88;;;13.35;;
24381;SDS011;12502;50.678;7.172;2023-01-19T02:23:57;25.08;;;15.00;;
24381;SDS011;12502;50.678;7.172;2023-01-19T02:29:02;25.77;;;14.50;;
24381;SDS011;12502;50.678;7.172;2023-01-19T02:34:07;20.23;;;12.10;;
24381;SDS011;12502;50.678;7.172;2023-01-19T02:39:11;26.08;;;14.52;;
24381;SDS011;12502;50.678;7.172;2023-01-19T02:44:15;22.17;;;13.60;;
24381;SDS011;12502;50.678;7.172;2023-01-19T02:49:19;22.00;;;13.88;;
24381;SDS011;12502;50.678;7.172;2023-01-19T03:10:22;18.85;;;11.77;;
24381;SDS011;12502;50.678;7.172;2023-01-19T03:15:49;20.92;;;12.57;;
24381;SDS011;12502;50.678;7.172;2023-01-19T03:21:03;19.50;;;11.98;;
24381;SDS011;12502;50.678;7.172;2023-01-19T03:26:08;25.30;;;13.75;;
24381;SDS011;12502;50.678;7.172;2023-01-19T03:31:18;21.05;;;12.85;;
24381;SDS011;12502;50.678;7.172;2023-01-19T03:36:25;23.83;;;14.68;;
24381;SDS011;12502;50.678;7.172;2023-01-19T03:41:28;27.40;;;14.77;;
24381;SDS011;12502;50.678;7.172;2023-01-19T03:46:34;23.10;;;15.30;;
24381;SDS011;12502;50.678;7.172;2023-01-19T03:51:36;23.58;;;14.35;;
24381;SDS011;12502;50.678;7.172;2023-01-19T03:56:39;23.63;;;14.68;;
24381;SDS011;12502;50.678;7.172;2023-01-19T04:01:41;29.40;;;15.60;;
24381;SDS011;12502;50.678;7.172;2023-01-19T04:06:43;23.48;;;15.27;;
24381;SDS011;12502;50.678;7.172;2023-01-19T04:11:45;27.02;;;15.65;;
24381;SDS011;12502;50.678;7.172;2023-01-19T04:16:46;25.55;;;15.18;;
24381;SDS011;12502;50.678;7.172;2023-01-19T04:21:48;28.00;;;15.60;;
24381;SDS011;12502;50.678;7.172;2023-01-19T04:26:50;23.35;;;14.85;;
24381;SDS011;12502;50.678;7.172;2023-01-19T04:31:53;23.70;;;13.73;;
24381;SDS011;12502;50.678;7.172;2023-01-19T04:36:55;20.58;;;12.93;;
24381;SDS011;12502;50.678;7.172;2023-01-19T04:41:57;20.90;;;13.13;;
24381;SDS011;12502;50.678;7.172;2023-01-19T04:46:58;21.98;;;14.15;;
24381;SDS011;12502;50.678;7.172;2023-01-19T04:52:02;25.00;;;15.13;;
24381;SDS011;12502;50.678;7.172;2023-01-19T04:57:04;25.15;;;15.30;;
24381;SDS011;12502;50.678;7.172;2023-01-19T05:02:06;28.23;;;14.65;;
24381;SDS011;12502;50.678;7.172;2023-01-19T05:07:08;25.98;;;14.02;;
24381;SDS011;12502;50.678;7.172;2023-01-19T05:12:10;21.48;;;13.52;;
24381;SDS011;12502;50.678;7.172;2023-01-19T05:17:12;21.60;;;13.60;;
24381;SDS011;12502;50.678;7.172;2023-01-19T05:22:14;23.45;;;13.00;;
24381;SDS011;12502;50.678;7.172;2023-01-19T05:27:16;22.63;;;12.15;;
24381;SDS011;12502;50.678;7.172;2023-01-19T05:32:18;22.25;;;12.23;;
24381;SDS011;12502;50.678;7.172;2023-01-19T05:37:19;22.52;;;12.48;;
24381;SDS011;12502;50.678;7.172;2023-01-19T05:42:21;21.75;;;11.77;;
24381;SDS011;12502;50.678;7.172;2023-01-19T05:47:23;19.23;;;11.80;;
24381;SDS011;12502;50.678;7.172;2023-01-19T05:52:25;21.40;;;12.02;;
24381;SDS011;12502;50.678;7.172;2023-01-19T05:57:26;19.65;;;12.23;;
24381;SDS011;12502;50.678;7.172;2023-01-19T06:02:28;19.70;;;13.00;;
24381;SDS011;12502;50.678;7.172;2023-01-19T06:07:30;21.73;;;13.45;;
24381;SDS011;12502;50.678;7.172;2023-01-19T06:12:32;17.48;;;11.00;;
24381;SDS011;12502;50.678;7.172;2023-01-19T06:17:34;19.17;;;12.05;;
24381;SDS011;12502;50.678;7.172;2023-01-19T06:22:37;18.60;;;11.70;;
24381;SDS011;12502;50.678;7.172;2023-01-19T06:27:42;17.85;;;10.60;;
24381;SDS011;12502;50.678;7.172;2023-01-19T06:32:44;18.40;;;12.02;;
24381;SDS011;12502;50.678;7.172;2023-01-19T06:37:46;18.00;;;11.18;;
24381;SDS011;12502;50.678;7.172;2023-01-19T06:42:48;19.17;;;11.30;;
24381;SDS011;12502;50.678;7.172;2023-01-19T06:47:49;16.13;;;10.98;;
24381;SDS011;12502;50.678;7.172;2023-01-19T06:52:51;18.48;;;11.52;;
24381;SDS011;12502;50.678;7.172;2023-01-19T06:57:56;22.75;;;12.75;;
24381;SDS011;12502;50.678;7.172;2023-01-19T07:02:59;19.77;;;11.98;;
24381;SDS011;12502;50.678;7.172;2023-01-19T07:08:01;21.63;;;12.93;;
24381;SDS011;12502;50.678;7.172;2023-01-19T07:13:03;24.27;;;13.43;;
24381;SDS011;12502;50.678;7.172;2023-01-19T07:18:05;25.20;;;14.55;;
24381;SDS011;12502;50.678;7.172;2023-01-19T07:23:08;27.48;;;15.35;;
24381;SDS011;12502;50.678;7.172;2023-01-19T07:28:10;21.35;;;13.30;;
24381;SDS011;12502;50.678;7.172;2023-01-19T07:33:15;25.80;;;15.32;;
24381;SDS011;12502;50.678;7.172;2023-01-19T07:38:17;24.35;;;14.40;;
24381;SDS011;12502;50.678;7.172;2023-01-19T07:43:19;30.02;;;16.50;;
24381;SDS011;12502;50.678;7.172;2023-01-19T07:48:21;35.83;;;19.92;;
24381;SDS011;12502;50.678;7.172;2023-01-19T07:53:22;36.13;;;19.20;;
24381;SDS011;12502;50.678;7.172;2023-01-19T07:58:24;42.60;;;19.60;;
24381;SDS011;12502;50.678;7.172;2023-01-19T08:03:26;35.80;;;17.17;;
24381;SDS011;12502;50.678;7.172;2023-01-19T08:08:28;36.03;;;17.75;;
24381;SDS011;12502;50.678;7.172;2023-01-19T08:13:31;35.65;;;18.95;;
24381;SDS011;12502;50.678;7.172;2023-01-19T08:18:32;33.08;;;18.55;;
24381;SDS011;12502;50.678;7.172;2023-01-19T08:23:34;35.47;;;19.25;;
24381;SDS011;12502;50.678;7.172;2023-01-19T08:28:36;34.28;;;17.65;;
24381;SDS011;12502;50.678;7.172;2023-01-19T08:33:37;38.80;;;20.27;;
24381;SDS011;12502;50.678;7.172;2023-01-19T08:38:39;36.33;;;18.20;;
24381;SDS011;12502;50.678;7.172;2023-01-19T08:43:44;36.15;;;18.55;;
24381;SDS011;12502;50.678;7.172;2023-01-19T08:48:46;43.28;;;20.75;;
24381;SDS011;12502;50.678;7.172;2023-01-19T08:53:51;33.75;;;18.13;;
24381;SDS011;12502;50.678;7.172;2023-01-19T08:58:52;34.22;;;17.52;;
24381;SDS011;12502;50.678;7.172;2023-01-19T09:04:09;35.67;;;18.48;;
24381;SDS011;12502;50.678;7.172;2023-01-19T09:09:11;33.75;;;16.92;;
24381;SDS011;12502;50.678;7.172;2023-01-19T09:14:13;35.33;;;18.38;;
24381;SDS011;12502;50.678;7.172;2023-01-19T09:19:14;31.23;;;18.45;;
24381;SDS011;12502;50.678;7.172;2023-01-19T09:24:16;29.42;;;16.77;;
24381;SDS011;12502;50.678;7.172;2023-01-19T09:29:18;29.95;;;17.60;;
24381;SDS011;12502;50.678;7.172;2023-01-19T09:34:19;34.63;;;16.70;;
24381;SDS011;12502;50.678;7.172;2023-01-19T09:39:23;27.90;;;16.35;;
24381;SDS011;12502;50.678;7.172;2023-01-19T09:44:28;38.72;;;17.73;;
24381;SDS011;12502;50.678;7.172;2023-01-19T09:49:35;31.60;;;16.42;;
24381;SDS011;12502;50.678;7.172;2023-01-19T09:59:44;35.93;;;16.87;;
24381;SDS011;12502;50.678;7.172;2023-01-19T10:10:08;30.70;;;16.27;;
24381;SDS011;12502;50.678;7.172;2023-01-19T10:25:53;30.35;;;15.93;;
24381;SDS011;12502;50.678;7.172;2023-01-19T10:30:59;28.77;;;15.43;;
24381;SDS011;12502;50.678;7.172;2023-01-19T10:36:05;32.45;;;16.58;;
24381;SDS011;12502;50.678;7.172;2023-01-19T10:41:17;32.88;;;15.93;;
24381;SDS011;12502;50.678;7.172;2023-01-19T10:51:39;31.20;;;15.73;;
24381;SDS011;12502;50.678;7.172;2023-01-19T10:57:01;31.03;;;15.73;;
24381;SDS011;12502;50.678;7.172;2023-01-19T11:07:30;30.73;;;16.30;;
24381;SDS011;12502;50.678;7.172;2023-01-19T11:17:40;30.63;;;16.48;;
24381;SDS011;12502;50.678;7.172;2023-01-19T11:22:45;30.63;;;14.80;;
24381;SDS011;12502;50.678;7.172;2023-01-19T11:27:49;34.10;;;16.40;;
24381;SDS011;12502;50.678;7.172;2023-01-19T11:32:52;27.27;;;15.37;;
24381;SDS011;12502;50.678;7.172;2023-01-19T11:43:17;30.58;;;14.55;;
24381;SDS011;12502;50.678;7.172;2023-01-19T11:49:03;23.10;;;13.32;;
24381;SDS011;12502;50.678;7.172;2023-01-19T11:54:04;29.33;;;13.95;;
24381;SDS011;12502;50.678;7.172;2023-01-19T11:59:17;20.48;;;11.38;;
24381;SDS011;12502;50.678;7.172;2023-01-19T12:04:23;18.08;;;10.43;;
24381;SDS011;12502;50.678;7.172;2023-01-19T12:14:46;24.50;;;10.15;;
24381;SDS011;12502;50.678;7.172;2023-01-19T12:19:55;26.90;;;10.55;;
24381;SDS011;12502;50.678;7.172;2023-01-19T12:25:20;15.02;;;8.75;;
24381;SDS011;12502;50.678;7.172;2023-01-19T12:30:26;21.48;;;9.63;;
24381;SDS011;12502;50.678;7.172;2023-01-19T12:40:50;17.25;;;7.25;;
24381;SDS011;12502;50.678;7.172;2023-01-19T12:46:29;16.05;;;7.38;;
24381;SDS011;12502;50.678;7.172;2023-01-19T12:51:31;18.55;;;7.07;;
24381;SDS011;12502;50.678;7.172;2023-01-19T12:56:34;12.30;;;6.38;;
24381;SDS011;12502;50.678;7.172;2023-01-19T13:01:38;17.48;;;6.95;;
24381;SDS011;12502;50.678;7.172;2023-01-19T13:17:23;15.23;;;6.68;;
24381;SDS011;12502;50.678;7.172;2023-01-19T13:27:46;12.30;;;5.78;;
24381;SDS011;12502;50.678;7.172;2023-01-19T13:32:50;17.40;;;6.72;;
24381;SDS011;12502;50.678;7.172;2023-01-19T13:37:51;11.13;;;5.32;;
24381;SDS011;12502;50.678;7.172;2023-01-19T13:42:54;14.60;;;5.35;;
24381;SDS011;12502;50.678;7.172;2023-01-19T13:47:57;14.70;;;4.90;;
24381;SDS011;12502;50.678;7.172;2023-01-19T13:53:27;12.40;;;5.43;;
24381;SDS011;12502;50.678;7.172;2023-01-19T13:58:25;11.95;;;5.97;;
24381;SDS011;12502;50.678;7.172;2023-01-19T14:03:28;13.77;;;5.82;;
24381;SDS011;12502;50.678;7.172;2023-01-19T14:08:30;14.57;;;6.18;;
24381;SDS011;12502;50.678;7.172;2023-01-19T14:13:34;10.00;;;4.22;;
24381;SDS011;12502;50.678;7.172;2023-01-19T14:18:43;15.18;;;5.68;;
24381;SDS011;12502;50.678;7.172;2023-01-19T14:23:51;14.40;;;5.97;;
24381;SDS011;12502;50.678;7.172;2023-01-19T14:39:34;13.35;;;6.90;;
24381;SDS011;12502;50.678;7.172;2023-01-19T14:44:36;10.27;;;5.25;;
24381;SDS011;12502;50.678;7.172;2023-01-19T14:49:40;12.83;;;5.20;;
24381;SDS011;12502;50.678;7.172;2023-01-19T14:54:46;12.35;;;5.65;;
24381;SDS011;12502;50.678;7.172;2023-01-19T14:59:49;15.32;;;5.80;;
24381;SDS011;12502;50.678;7.172;2023-01-19T15:04:52;11.82;;;5.50;;
24381;SDS011;12502;50.678;7.172;2023-01-19T15:09:55;16.73;;;5.83;;
24381;SDS011;12502;50.678;7.172;2023-01-19T15:14:59;10.45;;;4.80;;
24381;SDS011;12502;50.678;7.172;2023-01-19T15:20:01;9.45;;;5.13;;
24381;SDS011;12502;50.678;7.172;2023-01-19T15:25:03;14.07;;;5.22;;
24381;SDS011;12502;50.678;7.172;2023-01-19T15:30:12;12.63;;;4.97;;
24381;SDS011;12502;50.678;7.172;2023-01-19T15:35:24;12.27;;;4.95;;
24381;SDS011;12502;50.678;7.172;2023-01-19T15:40:26;12.80;;;4.80;;
24381;SDS011;12502;50.678;7.172;2023-01-19T15:50:30;11.63;;;5.18;;
24381;SDS011;12502;50.678;7.172;2023-01-19T15:55:32;9.98;;;5.28;;
24381;SDS011;12502;50.678;7.172;2023-01-19T16:00:34;9.85;;;4.90;;
24381;SDS011;12502;50.678;7.172;2023-01-19T16:05:36;7.97;;;5.32;;
24381;SDS011;12502;50.678;7.172;2023-01-19T16:10:43;10.73;;;5.20;;
24381;SDS011;12502;50.678;7.172;2023-01-19T16:15:45;9.68;;;5.35;;
24381;SDS011;12502;50.678;7.172;2023-01-19T16:20:47;11.50;;;5.18;;
24381;SDS011;12502;50.678;7.172;2023-01-19T16:25:59;11.35;;;5.90;;
24381;SDS011;12502;50.678;7.172;2023-01-19T16:31:07;9.57;;;5.93;;
24381;SDS011;12502;50.678;7.172;2023-01-19T16:36:16;8.43;;;6.50;;
24381;SDS011;12502;50.678;7.172;2023-01-19T16:41:24;12.70;;;6.93;;
24381;SDS011;12502;50.678;7.172;2023-01-19T16:46:30;10.07;;;6.80;;
24381;SDS011;12502;50.678;7.172;2023-01-19T16:51:36;10.52;;;6.80;;
24381;SDS011;12502;50.678;7.172;2023-01-19T16:56:38;11.95;;;7.43;;
24381;SDS011;12502;50.678;7.172;2023-01-19T17:01:41;15.50;;;8.35;;
24381;SDS011;12502;50.678;7.172;2023-01-19T17:06:45;14.23;;;7.95;;
24381;SDS011;12502;50.678;7.172;2023-01-19T17:11:47;15.00;;;8.75;;
24381;SDS011;12502;50.678;7.172;2023-01-19T17:16:49;16.73;;;9.30;;
24381;SDS011;12502;50.678;7.172;2023-01-19T17:21:52;15.30;;;7.70;;
24381;SDS011;12502;50.678;7.172;2023-01-19T17:32:21;11.35;;;6.95;;
24381;SDS011;12502;50.678;7.172;2023-01-19T17:37:23;10.95;;;7.35;;
24381;SDS011;12502;50.678;7.172;2023-01-19T17:42:24;12.77;;;7.28;;
24381;SDS011;12502;50.678;7.172;2023-01-19T17:47:26;9.85;;;6.45;;
24381;SDS011;12502;50.678;7.172;2023-01-19T17:52:28;11.43;;;6.28;;
24381;SDS011;12502;50.678;7.172;2023-01-19T17:57:30;10.93;;;5.55;;
24381;SDS011;12502;50.678;7.172;2023-01-19T18:02:31;11.57;;;6.30;;
24381;SDS011;12502;50.678;7.172;2023-01-19T18:07:34;9.95;;;5.90;;
24381;SDS011;12502;50.678;7.172;2023-01-19T18:12:36;12.05;;;6.05;;
24381;SDS011;12502;50.678;7.172;2023-01-19T18:17:38;16.75;;;8.60;;
24381;SDS011;12502;50.678;7.172;2023-01-19T18:22:39;14.90;;;8.48;;
24381;SDS011;12502;50.678;7.172;2023-01-19T18:27:41;11.63;;;7.43;;
24381;SDS011;12502;50.678;7.172;2023-01-19T18:32:43;9.57;;;6.18;;
24381;SDS011;12502;50.678;7.172;2023-01-19T18:37:46;10.18;;;6.65;;
24381;SDS011;12502;50.678;7.172;2023-01-19T18:42:48;12.50;;;6.70;;
24381;SDS011;12502;50.678;7.172;2023-01-19T18:47:50;11.50;;;7.28;;
24381;SDS011;12502;50.678;7.172;2023-01-19T18:52:52;8.93;;;6.07;;
24381;SDS011;12502;50.678;7.172;2023-01-19T18:57:54;19.05;;;7.40;;
24381;SDS011;12502;50.678;7.172;2023-01-19T19:02:56;15.45;;;7.60;;
24381;SDS011;12502;50.678;7.172;2023-01-19T19:07:58;12.98;;;7.53;;
24381;SDS011;12502;50.678;7.172;2023-01-19T19:12:59;17.63;;;8.88;;
24381;SDS011;12502;50.678;7.172;2023-01-19T19:18:01;15.80;;;8.95;;
24381;SDS011;12502;50.678;7.172;2023-01-19T19:23:03;15.48;;;9.70;;
24381;SDS011;12502;50.678;7.172;2023-01-19T19:28:05;16.48;;;9.95;;
24381;SDS011;12502;50.678;7.172;2023-01-19T19:33:07;16.83;;;9.88;;
24381;SDS011;12502;50.678;7.172;2023-01-19T19:38:08;18.30;;;10.05;;
24381;SDS011;12502;50.678;7.172;2023-01-19T19:43:10;14.73;;;9.13;;
24381;SDS011;12502;50.678;7.172;2023-01-19T19:48:12;15.15;;;9.90;;
24381;SDS011;12502;50.678;7.172;2023-01-19T19:53:13;15.25;;;9.70;;
24381;SDS011;12502;50.678;7.172;2023-01-19T19:58:15;16.65;;;9.85;;
24381;SDS011;12502;50.678;7.172;2023-01-19T20:03:17;13.65;;;9.18;;
24381;SDS011;12502;50.678;7.172;2023-01-19T20:08:19;17.20;;;10.40;;
24381;SDS011;12502;50.678;7.172;2023-01-19T20:13:21;17.45;;;10.82;;
24381;SDS011;12502;50.678;7.172;2023-01-19T20:18:23;18.20;;;10.27;;
24381;SDS011;12502;50.678;7.172;2023-01-19T20:23:25;17.85;;;10.05;;
24381;SDS011;12502;50.678;7.172;2023-01-19T20:28:27;12.13;;;8.65;;
24381;SDS011;12502;50.678;7.172;2023-01-19T20:33:29;14.48;;;9.27;;
24381;SDS011;12502;50.678;7.172;2023-01-19T20:38:30;17.48;;;9.70;;
24381;SDS011;12502;50.678;7.172;2023-01-19T20:43:33;19.42;;;10.30;;
24381;SDS011;12502;50.678;7.172;2023-01-19T20:48:35;13.35;;;8.85;;
24381;SDS011;12502;50.678;7.172;2023-01-19T20:53:39;19.02;;;9.85;;
24381;SDS011;12502;50.678;7.172;2023-01-19T20:58:41;15.77;;;10.02;;
24381;SDS011;12502;50.678;7.172;2023-01-19T21:03:43;18.42;;;10.90;;
24381;SDS011;12502;50.678;7.172;2023-01-19T21:08:46;17.95;;;10.63;;
24381;SDS011;12502;50.678;7.172;2023-01-19T21:13:50;24.65;;;10.98;;
24381;SDS011;12502;50.678;7.172;2023-01-19T21:18:55;18.23;;;10.77;;
24381;SDS011;12502;50.678;7.172;2023-01-19T21:24:01;17.40;;;10.82;;
24381;SDS011;12502;50.678;7.172;2023-01-19T21:29:03;17.02;;;10.93;;
24381;SDS011;12502;50.678;7.172;2023-01-19T21:34:05;17.05;;;10.57;;
24381;SDS011;12502;50.678;7.172;2023-01-19T21:39:07;15.75;;;10.00;;
24381;SDS011;12502;50.678;7.172;2023-01-19T21:44:12;14.40;;;9.90;;
24381;SDS011;12502;50.678;7.172;2023-01-19T21:49:16;19.08;;;11.02;;
24381;SDS011;12502;50.678;7.172;2023-01-19T21:54:19;17.80;;;10.80;;
24381;SDS011;12502;50.678;7.172;2023-01-19T21:59:21;15.38;;;9.63;;
24381;SDS011;12502;50.678;7.172;2023-01-19T22:04:22;15.30;;;10.60;;
24381;SDS011;12502;50.678;7.172;2023-01-19T22:09:24;16.58;;;11.32;;
24381;SDS011;12502;50.678;7.172;2023-01-19T22:14:26;20.70;;;12.40;;
24381;SDS011;12502;50.678;7.172;2023-01-19T22:19:28;17.63;;;11.45;;
24381;SDS011;12502;50.678;7.172;2023-01-19T22:24:30;18.35;;;11.85;;
24381;SDS011;12502;50.678;7.172;2023-01-19T22:29:32;19.77;;;11.50;;
24381;SDS011;12502;50.678;7.172;2023-01-19T22:34:33;19.55;;;11.32;;
24381;SDS011;12502;50.678;7.172;2023-01-19T22:39:35;18.15;;;11.45;;
24381;SDS011;12502;50.678;7.172;2023-01-19T22:44:37;18.27;;;10.07;;
24381;SDS011;12502;50.678;7.172;2023-01-19T22:49:38;16.67;;;10.40;;
24381;SDS011;12502;50.678;7.172;2023-01-19T22:54:40;18.02;;;10.98;;
24381;SDS011;12502;50.678;7.172;2023-01-19T22:59:42;14.90;;;10.23;;
24381;SDS011;12502;50.678;7.172;2023-01-19T23:04:44;19.52;;;10.63;;
24381;SDS011;12502;50.678;7.172;2023-01-19T23:10:01;17.27;;;10.85;;
24381;SDS011;12502;50.678;7.172;2023-01-19T23:15:02;19.08;;;11.02;;
24381;SDS011;12502;50.678;7.172;2023-01-19T23:20:05;20.98;;;11.45;;
24381;SDS011;12502;50.678;7.172;2023-01-19T23:25:07;16.88;;;12.00;;
24381;SDS011;12502;50.678;7.172;2023-01-19T23:30:09;18.75;;;10.90;;
24381;SDS011;12502;50.678;7.172;2023-01-19T23:35:11;17.40;;;10.55;;
24381;SDS011;12502;50.678;7.172;2023-01-19T23:40:14;21.58;;;10.68;;
24381;SDS011;12502;50.678;7.172;2023-01-19T23:45:16;17.52;;;11.27;;
24381;SDS011;12502;50.678;7.172;2023-01-19T23:50:18;17.70;;;10.95;;
24381;SDS011;12502;50.678;7.172;2023-01-19T23:55:20;19.08;;;12.05;;
